createdAt,value
2022-07-30T00:03:00.383Z,2.50
2022-07-30T00:08:06.239Z,2.20
2022-07-30T00:13:09.782Z,2.10
2022-07-30T00:18:17.866Z,1.90
2022-07-30T00:23:22.902Z,1.80
2022-07-30T00:28:26.481Z,1.85
2022-07-30T00:33:29.998Z,1.83
2022-07-30T00:38:35.212Z,1.67
2022-07-30T00:43:38.898Z,1.40
2022-07-30T00:48:42.825Z,1.73
2022-07-30T00:53:48.007Z,1.42
2022-07-30T00:58:51.742Z,1.65
2022-07-30T01:03:55.307Z,1.50
2022-07-30T01:09:00.261Z,1.40
2022-07-30T01:14:05.452Z,1.60
2022-07-30T01:19:34.106Z,1.35
2022-07-30T01:24:45.141Z,1.50
2022-07-30T01:29:52.212Z,1.23
2022-07-30T01:40:01.406Z,1.38
2022-07-30T01:45:09.074Z,1.48
2022-07-30T01:50:15.532Z,1.20
2022-07-30T01:55:26.265Z,1.15
2022-07-30T02:00:36.087Z,1.30
2022-07-30T02:05:43.204Z,1.20
2022-07-30T02:16:02.279Z,1.20
2022-07-30T02:21:11.575Z,1.20
2022-07-30T02:26:23.020Z,1.13
2022-07-30T02:31:31.060Z,1.20
2022-07-30T02:36:35.349Z,1.30
2022-07-30T02:41:44.563Z,1.10
2022-07-30T02:46:52.839Z,1.20
2022-07-30T02:52:12.242Z,1.40
2022-07-30T02:57:17.163Z,1.25
2022-07-30T03:02:29.357Z,1.20
2022-07-30T03:07:34.725Z,1.17
2022-07-30T03:12:41.306Z,1.30
2022-07-30T03:17:55.595Z,1.23
2022-07-30T03:23:03.074Z,1.27
2022-07-30T03:28:07.860Z,1.27
2022-07-30T03:33:13.940Z,1.30
2022-07-30T03:38:21.417Z,1.10
2022-07-30T03:43:32.809Z,1.30
2022-07-30T03:48:41.195Z,1.27
2022-07-30T03:53:46.983Z,1.30
2022-07-30T03:59:09.675Z,1.20
2022-07-30T04:04:18.013Z,1.35
2022-07-30T04:09:21.726Z,1.30
2022-07-30T04:14:25.798Z,1.20
2022-07-30T04:19:41.477Z,1.30
2022-07-30T04:24:47.709Z,1.20
2022-07-30T04:29:51.569Z,1.40
2022-07-30T04:34:57.895Z,1.40
2022-07-30T04:40:39.932Z,1.80
2022-07-30T04:45:45.415Z,1.80
2022-07-30T04:50:54.998Z,2.10
2022-07-30T04:56:02.554Z,2.20
2022-07-30T05:01:08.088Z,2.10
2022-07-30T05:06:14.439Z,2.40
2022-07-30T05:11:18.389Z,2.45
2022-07-30T05:16:22.412Z,2.50
2022-07-30T05:21:28.684Z,2.70
2022-07-30T05:26:33.028Z,2.78
2022-07-30T05:31:38.057Z,2.55
2022-07-30T05:36:45.505Z,2.67
2022-07-30T05:41:51.689Z,2.38
2022-07-30T05:47:10.798Z,2.60
2022-07-30T05:52:17.480Z,2.40
2022-07-30T05:57:22.055Z,2.50
2022-07-30T06:02:25.849Z,2.28
2022-07-30T06:07:49.229Z,2.30
2022-07-30T06:12:55.992Z,2.38
2022-07-30T06:18:02.186Z,2.30
2022-07-30T06:23:28.019Z,2.40
2022-07-30T06:28:54.547Z,2.40
2022-07-30T06:34:07.097Z,2.13
2022-07-30T06:39:56.207Z,2.38
2022-07-30T06:45:03.736Z,2.60
2022-07-30T06:50:28.047Z,2.30
2022-07-30T06:55:33.738Z,2.35
2022-07-30T07:00:38.325Z,2.30
2022-07-30T07:05:48.078Z,2.15
2022-07-30T07:10:53.227Z,2.30
2022-07-30T07:16:07.630Z,1.90
2022-07-30T07:21:13.103Z,2.40
2022-07-30T07:26:18.436Z,2.00
2022-07-30T07:32:05.902Z,2.00
2022-07-30T07:36:46.949Z,1.92
2022-07-30T07:41:51.986Z,1.90
2022-07-30T07:46:59.900Z,1.70
2022-07-30T07:52:09.147Z,1.63
2022-07-30T07:57:15.253Z,1.90
2022-07-30T08:02:19.733Z,1.83
2022-07-30T08:07:45.587Z,1.85
2022-07-30T08:13:48.126Z,1.70
2022-07-30T08:18:59.532Z,1.80
2022-07-30T08:24:20.083Z,1.80
2022-07-30T08:29:25.172Z,1.85
2022-07-30T08:34:29.378Z,1.75
2022-07-30T08:39:34.484Z,1.63
2022-07-30T08:44:40.524Z,1.65
2022-07-30T08:49:45.074Z,1.83
2022-07-30T08:54:49.333Z,1.60
2022-07-30T09:00:00.027Z,1.60
2022-07-30T09:05:08.314Z,1.90
2022-07-30T09:10:12.700Z,2.05
2022-07-30T09:15:21.110Z,1.60
2022-07-30T09:20:27.986Z,1.90
2022-07-30T09:25:38.897Z,1.90
2022-07-30T09:31:02.563Z,1.52
2022-07-30T09:36:25.426Z,1.38
2022-07-30T09:41:49.392Z,1.73
2022-07-30T09:46:55.207Z,1.60
2022-07-30T09:52:05.135Z,1.45
2022-07-30T09:57:25.475Z,1.40
2022-07-30T10:02:34.649Z,1.40
2022-07-30T10:13:20.580Z,1.20
2022-07-30T10:18:28.584Z,1.50
2022-07-30T10:24:08.314Z,1.45
2022-07-30T10:29:33.865Z,1.23
2022-07-30T10:34:42.660Z,1.50
2022-07-30T10:39:56.339Z,1.40
2022-07-30T10:45:35.790Z,1.52
2022-07-30T10:50:57.210Z,1.60
2022-07-30T10:56:16.314Z,1.67
2022-07-30T11:01:20.222Z,1.80
2022-07-30T11:06:29.552Z,4.80
2022-07-30T11:12:02.285Z,7.03
2022-07-30T11:22:31.725Z,7.22
2022-07-30T11:27:41.110Z,6.30
2022-07-30T11:32:48.374Z,5.32
2022-07-30T11:38:07.199Z,4.57
2022-07-30T11:43:34.960Z,4.13
2022-07-30T11:48:43.024Z,3.78
2022-07-30T11:54:02.511Z,3.37
2022-07-30T11:59:09.423Z,3.00
2022-07-30T12:04:13.075Z,3.03
2022-07-30T12:09:29.154Z,2.53
2022-07-30T12:14:39.420Z,2.20
2022-07-30T12:19:48.292Z,2.05
2022-07-30T12:24:53.755Z,1.80
2022-07-30T12:29:57.353Z,1.83
2022-07-30T12:35:00.960Z,1.77
2022-07-30T12:40:14.938Z,1.80
2022-07-30T12:45:30.197Z,1.90
2022-07-30T12:51:07.437Z,1.88
2022-07-30T12:56:18.716Z,1.60
2022-07-30T13:01:41.925Z,1.40
2022-07-30T13:06:45.816Z,1.40
2022-07-30T13:11:51.329Z,1.42
2022-07-30T13:16:58.397Z,1.40
2022-07-30T13:22:01.939Z,1.30
2022-07-30T13:27:07.326Z,1.52
2022-07-30T13:32:11.118Z,1.30
2022-07-30T13:37:14.636Z,1.40
2022-07-30T13:42:19.858Z,1.80
2022-07-30T13:52:28.920Z,2.33
2022-07-30T13:57:34.142Z,2.03
2022-07-30T14:02:37.881Z,2.03
2022-07-30T14:07:42.147Z,2.10
2022-07-30T14:12:47.069Z,1.92
2022-07-30T14:17:56.074Z,1.75
2022-07-30T14:23:00.565Z,1.77
2022-07-30T14:28:06.148Z,2.10
2022-07-30T14:33:09.807Z,1.70
2022-07-30T14:38:13.461Z,2.08
2022-07-30T14:43:19.695Z,1.70
2022-07-30T14:48:23.335Z,1.58
2022-07-30T14:53:26.864Z,1.70
2022-07-30T14:58:31.853Z,1.80
2022-07-30T15:03:36.196Z,1.60
2022-07-30T15:08:39.972Z,1.70
2022-07-30T15:13:50.541Z,1.60
2022-07-30T15:18:54.428Z,1.50
2022-07-30T15:23:57.942Z,1.40
2022-07-30T15:29:04.792Z,1.40
2022-07-30T15:34:10.879Z,1.40
2022-07-30T15:39:15.483Z,1.30
2022-07-30T15:44:20.748Z,1.55
2022-07-30T15:49:24.978Z,1.48
2022-07-30T15:54:29.583Z,1.33
2022-07-30T15:59:34.615Z,1.40
2022-07-30T16:04:38.786Z,1.33
2022-07-30T16:09:44.803Z,2.20
2022-07-30T16:14:50.969Z,1.80
2022-07-30T16:19:54.779Z,1.80
2022-07-30T16:24:58.545Z,1.70
2022-07-30T16:30:03.550Z,1.60
2022-07-30T16:35:13.105Z,1.60
2022-07-30T16:40:17.050Z,1.52
2022-07-30T16:45:22.156Z,1.60
2022-07-30T16:50:25.828Z,1.73
2022-07-30T16:55:29.610Z,1.50
2022-07-30T17:00:34.559Z,1.67
2022-07-30T17:05:38.258Z,1.50
2022-07-30T17:10:49.156Z,1.70
2022-07-30T17:15:54.934Z,1.50
2022-07-30T17:20:58.687Z,1.67
2022-07-30T17:26:02.304Z,1.40
2022-07-30T17:31:07.511Z,1.30
2022-07-30T17:36:12.853Z,1.60
2022-07-30T17:41:16.453Z,1.55
2022-07-30T17:46:21.473Z,1.50
2022-07-30T17:51:25.045Z,1.40
2022-07-30T17:56:28.629Z,1.60
2022-07-30T18:01:34.377Z,1.38
2022-07-30T18:06:37.968Z,1.40
2022-07-30T18:11:41.605Z,1.40
2022-07-30T18:16:46.943Z,1.48
2022-07-30T18:21:50.571Z,1.50
2022-07-30T18:26:55.327Z,1.50
2022-07-30T18:32:00.594Z,1.55
2022-07-30T18:37:04.704Z,1.48
2022-07-30T18:42:09.031Z,1.33
2022-07-30T18:47:13.975Z,1.50
2022-07-30T18:52:18.316Z,1.35
2022-07-30T18:57:21.899Z,1.42
2022-07-30T19:02:26.890Z,1.45
2022-07-30T19:07:30.377Z,1.50
2022-07-30T19:12:54.687Z,1.40
2022-07-30T19:17:59.959Z,1.50
2022-07-30T19:23:06.103Z,1.50
2022-07-30T19:28:11.252Z,1.40
2022-07-30T19:33:16.501Z,1.50
2022-07-30T19:38:21.802Z,1.40
2022-07-30T19:47:15.873Z,1.65
2022-07-30T19:55:17.125Z,1.85
2022-07-30T20:00:35.778Z,2.03
2022-07-30T20:05:54.952Z,1.90
2022-07-30T20:11:07.437Z,2.00
2022-07-30T20:16:12.237Z,2.20
2022-07-30T20:21:16.729Z,1.80
2022-07-30T20:26:25.058Z,1.80
2022-07-30T20:31:32.653Z,1.63
2022-07-30T20:36:38.585Z,1.70
2022-07-30T20:41:45.046Z,1.55
2022-07-30T20:46:48.615Z,1.40
2022-07-30T20:51:53.829Z,1.40
2022-07-30T20:56:59.072Z,1.40
2022-07-30T21:02:03.195Z,1.40
2022-07-30T21:07:07.015Z,1.25
2022-07-30T21:17:36.246Z,1.20
2022-07-30T21:22:41.869Z,1.40
2022-07-30T21:27:47.379Z,1.30
2022-07-30T21:32:51.185Z,1.30
2022-07-30T21:37:54.725Z,1.40
2022-07-30T21:43:00.987Z,1.20
2022-07-30T21:48:05.237Z,1.10
2022-07-30T21:53:08.938Z,1.10
2022-07-30T21:58:25.714Z,1.20
2022-07-30T22:04:03.113Z,1.00
2022-07-30T22:08:53.987Z,1.27
2022-07-30T22:13:59.093Z,1.20
2022-07-30T22:19:05.002Z,1.40
2022-07-30T22:24:09.552Z,1.20
2022-07-30T22:29:38.017Z,1.10
2022-07-30T22:34:41.782Z,1.25
2022-07-30T22:39:50.565Z,1.20
2022-07-30T22:44:57.259Z,1.23
2022-07-30T22:50:00.904Z,1.10
2022-07-30T22:55:09.137Z,1.00
2022-07-30T23:00:27.774Z,1.10
2022-07-30T23:05:35.209Z,1.10
2022-07-30T23:10:39.026Z,1.00
2022-07-30T23:12:26.912Z,1.27
2022-07-30T23:15:44.775Z,0.93
2022-07-30T23:20:48.424Z,1.00
2022-07-30T23:25:51.994Z,1.08
2022-07-30T23:30:57.054Z,1.23
2022-07-30T23:36:01.263Z,1.00
2022-07-30T23:41:06.781Z,1.10
2022-07-30T23:46:13.939Z,1.20
2022-07-30T23:56:21.151Z,1.30
